Time;durP1;ratioP1;P1;durP2;ratioP2;P2;SDS_P1;SDS_P2;PMS_P1;PMS_P2;Temp;Humidity;BMP_temperature;BMP_pressure;BME280_temperature;BME280_humidity;BME280_pressure;Samples;Min_cycle;Max_cycle;Signal;HPM_P1;HPM_P2
2022/07/29 00:01:41;;;;;;;4.30;3.90;;;19.30;99.90;;;;;;5067939;28;20458;-93
2022/07/29 00:04:08;;;;;;;4.17;3.70;;;19.30;99.90;;;;;;5068361;28;20468;-93
2022/07/29 00:06:34;;;;;;;5.00;4.03;;;19.30;99.90;;;;;;5066974;28;20467;-95
2022/07/29 00:09:01;;;;;;;4.90;4.40;;;19.20;99.90;;;;;;5066868;28;20492;-93
2022/07/29 00:11:28;;;;;;;4.27;3.87;;;19.20;99.90;;;;;;5066471;28;20470;-93
2022/07/29 00:13:55;;;;;;;4.30;3.90;;;19.10;99.90;;;;;;5066405;28;20464;-92
2022/07/29 00:16:23;;;;;;;4.53;4.13;;;19.10;99.90;;;;;;5067666;28;20464;-93
2022/07/29 00:18:50;;;;;;;4.50;4.10;;;19.10;99.90;;;;;;5067611;28;20479;-93
2022/07/29 00:21:17;;;;;;;4.60;4.00;;;19.10;99.90;;;;;;5067358;28;20456;-93
2022/07/29 00:23:43;;;;;;;4.40;4.00;;;19.10;99.90;;;;;;5068204;28;20456;-95
2022/07/29 00:26:10;;;;;;;4.53;4.13;;;19.00;99.90;;;;;;5068012;28;20460;-93
2022/07/29 00:28:37;;;;;;;4.53;4.07;;;19.10;99.90;;;;;;5067480;28;20495;-93
2022/07/29 00:31:03;;;;;;;4.60;3.80;;;19.10;99.90;;;;;;5068445;28;20486;-93
2022/07/29 00:33:32;;;;;;;5.30;4.80;;;19.00;99.90;;;;;;5068434;28;20467;-93
2022/07/29 00:35:57;;;;;;;4.73;4.23;;;19.00;99.90;;;;;;5067852;28;20471;-93
2022/07/29 00:38:24;;;;;;;4.00;3.70;;;19.00;99.90;;;;;;5067205;28;20496;-94
2022/07/29 00:40:51;;;;;;;4.03;3.73;;;19.00;99.90;;;;;;5066055;28;20202;-93
2022/07/29 00:43:18;;;;;;;4.63;4.23;;;19.00;99.90;;;;;;5065991;28;20467;-93
2022/07/29 00:45:45;;;;;;;4.20;3.90;;;19.00;99.90;;;;;;5067013;28;20452;-93
2022/07/29 00:48:12;;;;;;;3.53;3.23;;;19.00;99.90;;;;;;5064926;28;20522;-94
2022/07/29 00:50:40;;;;;;;4.73;3.57;;;19.00;99.90;;;;;;5065965;28;20460;-93
2022/07/29 00:53:08;;;;;;;4.13;3.83;;;19.00;99.90;;;;;;5067734;28;20461;-93
2022/07/29 00:55:35;;;;;;;3.50;3.20;;;19.00;99.90;;;;;;5066231;28;20464;-93
2022/07/29 00:58:02;;;;;;;4.63;4.00;;;19.00;99.90;;;;;;5066756;28;20487;-93
2022/07/29 01:00:29;;;;;;;3.73;3.43;;;19.00;99.90;;;;;;5065883;28;20460;-94
2022/07/29 01:02:56;;;;;;;4.20;3.90;;;19.00;99.90;;;;;;5067796;28;20460;-93
2022/07/29 01:05:25;;;;;;;4.90;4.50;;;19.00;99.90;;;;;;5068080;28;20470;-94
2022/07/29 01:07:55;;;;;;;4.10;3.80;;;18.90;99.90;;;;;;5068087;28;20487;-94
2022/07/29 01:10:23;;;;;;;4.57;4.17;;;18.90;99.90;;;;;;5068084;28;20458;-93
2022/07/29 01:12:52;;;;;;;5.33;4.10;;;18.90;99.90;;;;;;5068619;28;20465;-94
2022/07/29 01:15:19;;;;;;;4.50;4.10;;;18.90;99.90;;;;;;5069058;28;20973;-94
2022/07/29 01:17:50;;;;;;;4.23;3.83;;;18.80;99.90;;;;;;5068873;28;20984;-93
2022/07/29 01:20:25;;;;;;;4.50;4.10;;;18.70;99.90;;;;;;5069296;28;20460;-94
2022/07/29 01:23:10;;;;;;;4.30;3.90;;;18.80;99.90;;;;;;5077017;28;20432;-95
2022/07/29 01:26:04;;;;;;;3.90;3.60;;;18.80;99.90;;;;;;5070364;28;20929;-94
2022/07/29 01:28:55;;;;;;;4.83;3.47;;;18.70;99.90;;;;;;5074854;28;20479;-93
2022/07/29 01:31:29;;;;;;;4.27;3.87;;;18.70;99.90;;;;;;5073929;28;20463;-93
2022/07/29 01:33:59;;;;;;;4.40;4.00;;;18.70;99.90;;;;;;5072525;28;20452;-94
2022/07/29 01:36:32;;;;;;;4.70;4.27;;;18.70;99.90;;;;;;5073336;28;20455;-94
2022/07/29 01:39:08;;;;;;;3.43;3.13;;;18.70;99.90;;;;;;5075222;28;20472;-94
2022/07/29 01:41:39;;;;;;;4.00;3.70;;;18.70;99.90;;;;;;5075524;28;20440;-94
2022/07/29 01:44:14;;;;;;;3.60;3.30;;;18.70;99.90;;;;;;5075701;28;20440;-95
2022/07/29 01:46:46;;;;;;;5.00;3.80;;;18.60;99.90;;;;;;5075781;28;20470;-94
2022/07/29 01:49:18;;;;;;;4.03;3.43;;;18.60;99.90;;;;;;5074545;28;20539;-92
2022/07/29 01:51:51;;;;;;;4.93;3.63;;;18.60;99.90;;;;;;5073971;28;20448;-93
2022/07/29 01:54:21;;;;;;;4.00;3.57;;;18.60;99.90;;;;;;5073951;28;20459;-94
2022/07/29 01:56:51;;;;;;;4.20;3.40;;;18.50;99.90;;;;;;5073768;28;20453;-94
2022/07/29 01:59:21;;;;;;;5.13;4.00;;;18.50;99.90;;;;;;5072968;28;20486;-94
2022/07/29 02:01:51;;;;;;;3.90;3.50;;;18.50;99.90;;;;;;5073159;28;20460;-94
2022/07/29 02:04:20;;;;;;;3.37;2.80;;;18.50;99.90;;;;;;5071030;28;20467;-93
2022/07/29 02:06:49;;;;;;;3.30;3.10;;;18.40;99.90;;;;;;5070255;28;20449;-93
2022/07/29 02:09:18;;;;;;;3.80;3.50;;;18.50;99.90;;;;;;5070756;28;20484;-93
2022/07/29 02:11:50;;;;;;;3.47;3.17;;;18.40;99.90;;;;;;5071887;28;20460;-94
2022/07/29 02:14:19;;;;;;;4.30;3.00;;;18.40;99.90;;;;;;5072304;28;20557;-94
2022/07/29 02:16:47;;;;;;;3.80;3.50;;;18.40;99.90;;;;;;5073153;28;20463;-94
2022/07/29 02:19:18;;;;;;;3.83;3.53;;;18.30;99.90;;;;;;5073066;28;20451;-93
2022/07/29 02:21:46;;;;;;;3.60;3.30;;;18.30;99.90;;;;;;5074818;28;20432;-94
2022/07/29 02:24:14;;;;;;;3.60;3.20;;;18.40;99.90;;;;;;5072553;28;20462;-94
2022/07/29 02:26:43;;;;;;;4.07;3.50;;;18.40;99.90;;;;;;5072412;28;20461;-95
2022/07/29 02:29:11;;;;;;;4.20;3.27;;;18.40;99.90;;;;;;5071394;28;20843;-94
2022/07/29 02:31:43;;;;;;;3.60;3.23;;;18.40;99.90;;;;;;5071711;28;20515;-94
2022/07/29 02:34:11;;;;;;;3.07;2.87;;;18.40;99.90;;;;;;5072554;28;20436;-94
2022/07/29 02:36:39;;;;;;;3.37;3.07;;;18.40;99.90;;;;;;5076221;28;20520;-94
2022/07/29 02:39:08;;;;;;;3.53;3.23;;;18.40;99.90;;;;;;5078262;28;20486;-93
2022/07/29 02:41:41;;;;;;;3.10;2.90;;;18.40;99.90;;;;;;5077973;28;20452;-93
2022/07/29 02:44:11;;;;;;;2.97;2.60;;;18.30;99.90;;;;;;5076151;28;20436;-92
2022/07/29 02:46:48;;;;;;;3.67;3.10;;;18.30;99.90;;;;;;5077349;28;20456;-93
2022/07/29 02:49:19;;;;;;;3.17;2.97;;;18.30;99.90;;;;;;5075326;28;20561;-94
2022/07/29 02:51:50;;;;;;;3.70;3.03;;;18.30;99.90;;;;;;5076704;28;20456;-95
2022/07/29 02:54:24;;;;;;;3.40;3.10;;;18.20;99.90;;;;;;5078435;28;20432;-94
2022/07/29 02:56:55;;;;;;;3.60;3.30;;;18.20;99.90;;;;;;5078204;28;20537;-94
2022/07/29 02:59:27;;;;;;;3.43;2.53;;;18.20;99.90;;;;;;5076908;28;20467;-94
2022/07/29 03:01:56;;;;;;;3.80;3.50;;;18.20;99.90;;;;;;5076099;28;20516;-94
2022/07/29 03:04:26;;;;;;;3.00;2.80;;;18.20;99.90;;;;;;5077424;28;20442;-94
2022/07/29 03:06:54;;;;;;;3.30;3.07;;;18.20;99.90;;;;;;5077455;28;20469;-95
2022/07/29 03:11:48;;;;;;;3.13;2.90;;;18.20;99.90;;;;;;5069987;28;20528;-71
2022/07/29 03:14:17;;;;;;;3.20;2.90;;;18.20;99.90;;;;;;5072825;28;20847;-72
2022/07/29 03:16:44;;;;;;;3.77;3.27;;;18.10;99.90;;;;;;5073010;28;20513;-71
2022/07/29 03:19:12;;;;;;;3.53;3.20;;;18.10;99.90;;;;;;5072184;28;20494;-71
2022/07/29 03:21:39;;;;;;;3.53;3.23;;;18.10;99.90;;;;;;5072977;28;20459;-71
2022/07/29 03:24:07;;;;;;;4.20;3.90;;;18.10;99.90;;;;;;5072492;28;20470;-71
2022/07/29 03:26:34;;;;;;;3.90;3.57;;;18.10;99.90;;;;;;5073007;28;20486;-71
2022/07/29 03:29:00;;;;;;;3.60;3.30;;;18.00;99.90;;;;;;5072442;28;20939;-70
2022/07/29 03:31:27;;;;;;;4.00;3.60;;;18.00;99.90;;;;;;5072182;28;20463;-70
2022/07/29 03:33:54;;;;;;;4.10;3.73;;;17.90;99.90;;;;;;5072341;28;20973;-70
2022/07/29 03:36:22;;;;;;;3.70;3.40;;;17.90;99.90;;;;;;5046819;28;20476;-70
2022/07/29 03:38:49;;;;;;;2.80;2.60;;;17.90;99.90;;;;;;5042144;28;20487;-69
2022/07/29 03:41:17;;;;;;;2.97;2.70;;;17.80;99.90;;;;;;5040134;28;20576;-68
2022/07/29 03:43:46;;;;;;;3.43;3.10;;;17.80;99.90;;;;;;5041174;28;20467;-69
2022/07/29 03:46:17;;;;;;;3.33;3.03;;;17.80;99.90;;;;;;5042282;28;21057;-69
2022/07/29 03:48:49;;;;;;;3.60;3.30;;;17.80;99.90;;;;;;5040070;28;20523;-69
2022/07/29 03:51:16;;;;;;;3.47;3.17;;;17.80;99.90;;;;;;5039831;28;20836;-69
2022/07/29 03:53:44;;;;;;;3.33;3.03;;;17.80;99.90;;;;;;5048045;28;20518;-69
2022/07/29 03:56:16;;;;;;;3.47;3.17;;;17.70;99.90;;;;;;5051486;28;20476;-69
2022/07/29 03:58:44;;;;;;;3.50;3.20;;;17.70;99.90;;;;;;5039343;28;21007;-68
2022/07/29 04:01:11;;;;;;;3.47;3.17;;;17.70;99.90;;;;;;5040707;28;20460;-70
2022/07/29 04:03:37;;;;;;;2.77;2.57;;;17.70;99.90;;;;;;5041366;28;20457;-68
2022/07/29 04:06:06;;;;;;;3.73;3.37;;;17.60;99.90;;;;;;5039699;28;20480;-70
2022/07/29 04:08:33;;;;;;;3.43;3.13;;;17.60;99.90;;;;;;5040555;28;20943;-70
2022/07/29 04:11:02;;;;;;;2.97;2.70;;;17.60;99.90;;;;;;5040585;28;20921;-68
2022/07/29 04:13:37;;;;;;;3.23;3.00;;;17.60;99.90;;;;;;5040413;28;20465;-69
2022/07/29 04:16:05;;;;;;;4.03;3.43;;;17.50;99.90;;;;;;5039132;28;21035;-69
2022/07/29 04:18:32;;;;;;;3.17;2.87;;;17.50;99.90;;;;;;5040453;28;21005;-69
2022/07/29 04:21:00;;;;;;;2.90;2.70;;;17.50;99.90;;;;;;5038262;28;20465;-68
2022/07/29 04:23:27;;;;;;;3.17;2.87;;;17.50;99.90;;;;;;5048410;28;20460;-69
2022/07/29 04:25:54;;;;;;;3.33;3.03;;;17.50;99.90;;;;;;5049067;28;20565;-69
2022/07/29 04:28:22;;;;;;;3.30;3.00;;;17.50;99.90;;;;;;5041125;28;20453;-69
2022/07/29 04:30:48;;;;;;;5.20;3.10;;;17.40;99.90;;;;;;5031035;28;20469;-69
2022/07/29 04:33:15;;;;;;;3.13;2.83;;;17.50;99.90;;;;;;5030803;28;20465;-69
2022/07/29 04:35:42;;;;;;;3.20;2.90;;;17.50;99.90;;;;;;5030689;28;20476;-68
2022/07/29 04:38:08;;;;;;;3.00;2.70;;;17.50;99.90;;;;;;5030662;28;20841;-69
2022/07/29 04:40:35;;;;;;;3.53;2.83;;;17.50;99.90;;;;;;5030448;28;20471;-69
2022/07/29 04:43:02;;;;;;;3.10;2.90;;;17.50;99.90;;;;;;5031001;28;21368;-68
2022/07/29 04:45:30;;;;;;;2.93;2.60;;;17.60;99.90;;;;;;5031032;28;20855;-69
2022/07/29 04:47:57;;;;;;;2.97;2.67;;;17.60;99.90;;;;;;5031047;28;20472;-69
2022/07/29 04:50:24;;;;;;;3.13;2.83;;;17.60;99.90;;;;;;5030728;28;20457;-69
2022/07/29 04:52:51;;;;;;;2.67;2.47;;;17.70;99.90;;;;;;5031243;28;20468;-68
2022/07/29 04:55:18;;;;;;;2.47;2.27;;;17.70;99.90;;;;;;5031213;28;20457;-69
2022/07/29 04:57:44;;;;;;;3.53;3.23;;;17.80;99.90;;;;;;5031273;28;20472;-69
2022/07/29 05:00:12;;;;;;;3.03;2.73;;;17.80;99.90;;;;;;5030671;28;20484;-68
2022/07/29 05:02:40;;;;;;;2.90;2.70;;;17.80;99.90;;;;;;5030790;28;20457;-69
2022/07/29 05:05:08;;;;;;;2.63;2.43;;;17.90;99.90;;;;;;5031108;28;20468;-68
2022/07/29 05:07:34;;;;;;;3.07;2.73;;;17.90;99.90;;;;;;5030927;28;20465;-69
2022/07/29 05:10:01;;;;;;;3.13;2.83;;;18.00;99.90;;;;;;5030242;28;20476;-68
2022/07/29 05:12:28;;;;;;;3.00;2.60;;;18.00;99.90;;;;;;5031085;28;20874;-68
2022/07/29 05:14:55;;;;;;;3.00;2.80;;;18.10;99.90;;;;;;5030774;28;20957;-69
2022/07/29 05:17:22;;;;;;;2.60;2.40;;;18.10;99.90;;;;;;5030880;28;20510;-68
2022/07/29 05:19:51;;;;;;;3.17;2.80;;;18.20;99.90;;;;;;5029638;28;21042;-68
2022/07/29 05:22:18;;;;;;;2.63;2.40;;;18.20;99.90;;;;;;5030881;28;20971;-68
2022/07/29 05:24:44;;;;;;;2.37;2.17;;;18.30;99.90;;;;;;5030234;28;20468;-67
2022/07/29 05:27:11;;;;;;;2.47;2.27;;;18.30;99.90;;;;;;5030876;28;20492;-68
2022/07/29 05:29:38;;;;;;;4.13;2.80;;;18.30;99.90;;;;;;5029879;28;20461;-68
2022/07/29 05:32:06;;;;;;;2.67;2.43;;;18.40;99.90;;;;;;5030537;28;20465;-69
2022/07/29 05:34:33;;;;;;;2.47;2.27;;;18.40;99.90;;;;;;5030456;28;20547;-68
2022/07/29 05:37:01;;;;;;;3.43;2.83;;;18.50;99.90;;;;;;5030301;28;20481;-68
2022/07/29 05:39:28;;;;;;;3.10;2.80;;;18.50;99.90;;;;;;5029970;28;20495;-68
2022/07/29 05:41:55;;;;;;;2.60;2.40;;;18.60;99.90;;;;;;5030313;28;20468;-68
2022/07/29 05:44:21;;;;;;;2.53;2.33;;;18.60;99.90;;;;;;5030865;28;20487;-69
2022/07/29 05:46:48;;;;;;;2.53;2.33;;;18.60;99.90;;;;;;5029904;28;20480;-68
2022/07/29 05:49:15;;;;;;;3.17;2.53;;;18.70;99.90;;;;;;5030394;28;20457;-68
2022/07/29 05:51:41;;;;;;;2.87;2.57;;;18.70;99.90;;;;;;5030140;28;20949;-68
2022/07/29 05:54:10;;;;;;;2.53;2.33;;;18.70;99.90;;;;;;5030243;28;20461;-67
2022/07/29 05:56:37;;;;;;;2.60;2.23;;;18.70;99.90;;;;;;5030062;28;20481;-68
2022/07/29 05:59:04;;;;;;;2.80;2.60;;;18.70;99.90;;;;;;5030088;28;20531;-68
2022/07/29 06:01:31;;;;;;;2.80;2.37;;;18.80;99.90;;;;;;5030104;28;20461;-68
2022/07/29 06:04:01;;;;;;;3.10;2.80;;;18.80;99.90;;;;;;5030257;28;20468;-69
2022/07/29 06:06:29;;;;;;;3.13;2.73;;;18.80;99.90;;;;;;5030279;28;20481;-69
2022/07/29 06:08:56;;;;;;;2.93;2.63;;;18.80;99.90;;;;;;5029981;28;20932;-68
2022/07/29 06:11:24;;;;;;;3.20;2.90;;;19.00;99.90;;;;;;5030472;28;20469;-69
2022/07/29 06:13:51;;;;;;;3.03;2.47;;;19.00;99.90;;;;;;5033715;28;20531;-68
2022/07/29 06:16:18;;;;;;;3.33;3.03;;;19.00;99.90;;;;;;5034170;28;20493;-68
2022/07/29 06:18:44;;;;;;;2.53;2.33;;;19.00;99.90;;;;;;5034024;28;20583;-70
2022/07/29 06:21:11;;;;;;;2.83;2.63;;;19.00;99.90;;;;;;5033603;28;20467;-70
2022/07/29 06:23:39;;;;;;;4.13;2.90;;;19.10;99.90;;;;;;5034219;28;20476;-69
2022/07/29 06:26:06;;;;;;;2.90;2.70;;;19.20;99.90;;;;;;5033767;28;20480;-69
2022/07/29 06:28:34;;;;;;;3.37;3.07;;;19.30;99.90;;;;;;5033924;28;20472;-69
2022/07/29 06:31:01;;;;;;;2.97;2.70;;;19.30;99.90;;;;;;5032989;28;20826;-69
2022/07/29 06:33:28;;;;;;;3.40;3.00;;;19.40;99.90;;;;;;5034236;28;20467;-70
2022/07/29 06:35:55;;;;;;;3.30;3.00;;;19.30;99.90;;;;;;5033341;28;20502;-68
2022/07/29 06:38:22;;;;;;;3.40;3.10;;;19.30;99.90;;;;;;5033911;28;20461;-69
2022/07/29 06:41:01;;;;;;;3.03;2.73;;;19.40;99.90;;;;;;5033070;28;20542;-70
2022/07/29 06:43:31;;;;;;;3.87;3.47;;;19.50;99.90;;;;;;5033523;28;20894;-70
2022/07/29 06:46:03;;;;;;;3.20;2.90;;;19.50;99.90;;;;;;5033316;28;20508;-69
2022/07/29 06:48:41;;;;;;;2.90;2.70;;;19.60;99.90;;;;;;5040914;28;20463;-69
2022/07/29 06:51:09;;;;;;;3.43;3.13;;;19.60;99.90;;;;;;5050412;28;20460;-68
2022/07/29 06:53:37;;;;;;;3.10;2.90;;;19.70;99.90;;;;;;5052493;28;20472;-69
2022/07/29 06:56:06;;;;;;;2.77;2.47;;;19.70;99.90;;;;;;5052337;28;20487;-68
2022/07/29 06:58:33;;;;;;;2.90;2.70;;;19.80;99.90;;;;;;5053261;28;20829;-69
2022/07/29 07:01:03;;;;;;;3.37;3.07;;;19.90;99.90;;;;;;5051560;28;20565;-69
2022/07/29 07:03:30;;;;;;;4.10;3.07;;;19.90;99.90;;;;;;5051494;28;20460;-69
2022/07/29 07:05:59;;;;;;;3.23;2.80;;;20.00;99.90;;;;;;5050132;28;20487;-68
2022/07/29 07:08:26;;;;;;;3.83;3.43;;;20.10;99.90;;;;;;5051410;28;20970;-69
2022/07/29 07:10:56;;;;;;;2.67;2.47;;;20.20;99.90;;;;;;5050276;28;20517;-68
2022/07/29 07:13:23;;;;;;;3.13;2.93;;;20.30;99.90;;;;;;5051079;28;20456;-68
2022/07/29 07:15:51;;;;;;;4.40;3.37;;;20.40;99.90;;;;;;5051051;28;20510;-69
2022/07/29 07:18:23;;;;;;;3.30;3.00;;;20.40;99.90;;;;;;5050988;28;20456;-69
2022/07/29 07:20:56;;;;;;;3.23;2.90;;;20.50;99.90;;;;;;5051394;28;21010;-69
2022/07/29 07:23:22;;;;;;;5.63;2.67;;;20.60;99.90;;;;;;5050468;28;20466;-69
2022/07/29 07:25:49;;;;;;;3.50;3.20;;;20.70;99.90;;;;;;5051161;28;20562;-69
2022/07/29 07:28:20;;;;;;;3.47;3.17;;;20.70;99.90;;;;;;5051136;28;20571;-68
2022/07/29 07:30:47;;;;;;;3.83;3.53;;;20.80;99.90;;;;;;5051090;28;20539;-68
2022/07/29 07:33:19;;;;;;;4.60;3.20;;;20.80;99.90;;;;;;5052713;28;20460;-70
2022/07/29 07:35:45;;;;;;;3.20;2.90;;;20.90;99.90;;;;;;5051934;28;20574;-69
2022/07/29 07:38:12;;;;;;;3.53;3.23;;;20.90;99.90;;;;;;5052690;28;20460;-69
2022/07/29 07:40:39;;;;;;;3.97;3.67;;;20.80;99.90;;;;;;5051101;28;20488;-69
2022/07/29 07:43:06;;;;;;;3.67;3.00;;;21.00;99.90;;;;;;5051591;28;20468;-69
2022/07/29 07:45:33;;;;;;;4.20;3.47;;;21.00;99.90;;;;;;5052220;28;20880;-69
2022/07/29 07:48:03;;;;;;;3.03;2.83;;;21.10;99.90;;;;;;5051154;28;20456;-68
2022/07/29 07:50:33;;;;;;;4.10;3.20;;;21.20;99.90;;;;;;5051974;28;20556;-69
2022/07/29 07:53:01;;;;;;;3.57;3.27;;;21.30;99.90;;;;;;5050019;28;20467;-68
2022/07/29 07:55:28;;;;;;;4.47;4.07;;;21.40;99.90;;;;;;5052287;28;20491;-68
2022/07/29 07:57:55;;;;;;;3.83;3.53;;;21.50;99.90;;;;;;5051672;28;20465;-68
2022/07/29 08:00:22;;;;;;;4.33;3.90;;;21.60;99.90;;;;;;5051786;28;20489;-68
2022/07/29 08:02:49;;;;;;;4.00;3.60;;;21.70;99.90;;;;;;5051352;28;20464;-68
2022/07/29 08:05:17;;;;;;;3.63;3.30;;;21.80;99.90;;;;;;5051514;28;20459;-68
2022/07/29 08:07:47;;;;;;;3.57;3.27;;;21.80;99.90;;;;;;5051561;28;20460;-69
2022/07/29 08:10:51;;;;;;;3.60;3.30;;;21.90;99.90;;;;;;5050418;28;20469;-70
2022/07/29 08:13:04;;;;;;;3.50;3.20;;;22.00;99.90;;;;;;5051447;28;20457;-69
2022/07/29 08:15:31;;;;;;;3.90;3.57;;;22.20;99.90;;;;;;5051213;28;20900;-69
2022/07/29 08:17:58;;;;;;;4.20;3.80;;;22.30;99.90;;;;;;5051067;28;20467;-69
2022/07/29 08:20:25;;;;;;;3.60;3.30;;;22.40;99.90;;;;;;5050996;28;20494;-70
2022/07/29 08:22:53;;;;;;;3.40;3.20;;;22.50;99.90;;;;;;5050771;28;20465;-69
2022/07/29 08:25:20;;;;;;;5.27;3.90;;;22.50;99.90;;;;;;5051071;28;20461;-69
2022/07/29 08:27:47;;;;;;;3.73;3.43;;;22.60;99.90;;;;;;5050796;28;20462;-70
2022/07/29 08:30:14;;;;;;;2.97;2.77;;;22.80;99.90;;;;;;5050402;28;20982;-69
2022/07/29 08:32:41;;;;;;;3.93;3.60;;;22.90;99.90;;;;;;5050462;28;20466;-70
2022/07/29 08:35:08;;;;;;;3.50;3.20;;;23.10;99.90;;;;;;5050123;28;20473;-70
2022/07/29 08:37:35;;;;;;;3.50;3.20;;;23.30;99.90;;;;;;5051182;28;20464;-69
2022/07/29 08:40:04;;;;;;;3.83;3.53;;;23.40;99.90;;;;;;5049352;28;20490;-69
2022/07/29 08:42:31;;;;;;;3.30;3.00;;;23.50;99.90;;;;;;5051066;28;20583;-69
2022/07/29 08:44:58;;;;;;;3.97;3.57;;;23.50;99.90;;;;;;5050548;28;20949;-69
2022/07/29 08:47:27;;;;;;;3.63;3.33;;;23.50;99.90;;;;;;5050274;28;20997;-69
2022/07/29 08:49:53;;;;;;;3.93;3.60;;;23.60;99.90;;;;;;5050011;28;21039;-69
2022/07/29 08:52:22;;;;;;;3.50;3.20;;;23.60;99.90;;;;;;5050604;28;20461;-69
2022/07/29 08:54:49;;;;;;;3.60;3.30;;;23.60;99.90;;;;;;5050165;28;20465;-69
2022/07/29 08:57:18;;;;;;;3.67;3.37;;;23.60;99.90;;;;;;5049578;28;20857;-69
2022/07/29 08:59:47;;;;;;;3.60;3.30;;;23.60;99.90;;;;;;5049893;28;20479;-69
2022/07/29 09:02:19;;;;;;;4.10;3.77;;;23.80;99.90;;;;;;5050235;28;20545;-69
2022/07/29 09:04:47;;;;;;;3.83;3.47;;;23.90;99.90;;;;;;5049977;28;20524;-68
2022/07/29 09:07:16;;;;;;;3.30;2.90;;;24.10;99.90;;;;;;5050551;28;20514;-69
2022/07/29 09:09:43;;;;;;;3.50;3.20;;;24.20;99.90;;;;;;5048551;28;20482;-69
2022/07/29 09:12:11;;;;;;;4.43;3.53;;;24.40;99.90;;;;;;5050425;28;20490;-69
2022/07/29 09:14:39;;;;;;;3.30;3.00;;;24.50;99.90;;;;;;5049858;28;20467;-68
2022/07/29 09:17:07;;;;;;;3.27;3.07;;;24.60;99.90;;;;;;5050090;28;20494;-69
2022/07/29 09:19:35;;;;;;;3.47;3.17;;;24.70;99.90;;;;;;5049328;28;20469;-69
2022/07/29 09:22:04;;;;;;;3.20;2.90;;;24.80;99.90;;;;;;5069515;22;20512;-91
2022/07/29 09:24:39;;;;;;;3.83;3.47;;;25.00;99.90;;;;;;5044675;28;20453;-91
2022/07/29 09:27:21;;;;;;;3.60;3.30;;;25.20;99.90;;;;;;5045037;28;20448;-90
2022/07/29 09:29:57;;;;;;;3.90;3.60;;;25.30;99.90;;;;;;5038312;28;20503;-92
2022/07/29 09:32:24;;;;;;;3.53;3.23;;;25.40;99.90;;;;;;5023354;28;20535;-90
2022/07/29 09:34:53;;;;;;;4.00;3.60;;;25.50;99.90;;;;;;5027059;28;20852;-90
2022/07/29 09:37:29;;;;;;;3.50;3.20;;;25.50;99.90;;;;;;5022951;28;20460;-90
2022/07/29 09:39:56;;;;;;;3.40;3.10;;;25.60;99.90;;;;;;5033063;28;20492;-92
2022/07/29 09:42:29;;;;;;;3.70;3.40;;;25.70;99.90;;;;;;5031720;28;20484;-91
2022/07/29 09:44:58;;;;;;;3.90;3.30;;;25.90;99.90;;;;;;5046917;28;20496;-91
2022/07/29 09:47:42;;;;;;;3.07;2.87;;;26.10;99.90;;;;;;5044243;28;20466;-91
2022/07/29 09:50:09;;;;;;;3.47;3.17;;;26.20;99.90;;;;;;5048441;28;20555;-91
2022/07/29 09:52:46;;;;;;;3.70;3.30;;;26.40;99.90;;;;;;5055811;28;20461;-91
2022/07/29 09:55:13;;;;;;;3.40;3.10;;;26.50;99.90;;;;;;5049011;28;20460;-92
2022/07/29 09:57:40;;;;;;;3.63;3.33;;;26.40;99.90;;;;;;5047435;28;20471;-89
2022/07/29 10:00:10;;;;;;;3.70;3.40;;;26.40;99.90;;;;;;5034232;28;20492;-88
2022/07/29 10:02:39;;;;;;;3.20;3.00;;;26.30;99.90;;;;;;5031671;28;20485;-88
2022/07/29 10:05:07;;;;;;;4.57;4.17;;;26.40;99.90;;;;;;5031127;28;20465;-89
2022/07/29 10:07:48;;;;;;;3.87;3.43;;;26.40;99.90;;;;;;5031265;28;20483;-87
2022/07/29 10:10:34;;;;;;;4.20;3.90;;;26.50;99.90;;;;;;5030999;28;20460;-89
2022/07/29 10:13:03;;;;;;;4.10;3.70;;;26.60;99.90;;;;;;5030740;28;20495;-88
2022/07/29 10:15:36;;;;;;;4.03;3.53;;;26.60;99.90;;;;;;5031562;28;20457;-88
2022/07/29 10:18:04;;;;;;;3.80;3.37;;;26.60;99.90;;;;;;5030441;28;20461;-87
2022/07/29 10:20:31;;;;;;;4.67;3.87;;;26.70;99.90;;;;;;5046759;28;20472;-92
2022/07/29 10:25:47;;;;;;;4.53;3.57;;;26.60;99.90;;;;;;5049565;28;20967;-91
2022/07/29 10:28:14;;;;;;;4.13;3.83;;;26.50;99.90;;;;;;5051753;28;20496;-91
2022/07/29 10:30:44;;;;;;;3.80;3.50;;;26.40;99.90;;;;;;5041860;28;21035;-90
2022/07/29 10:33:28;;;;;;;4.77;3.50;;;26.20;99.90;;;;;;5033862;28;20469;-91
2022/07/29 10:36:12;;;;;;;4.80;4.40;;;26.10;99.90;;;;;;5036818;28;20475;-91
2022/07/29 10:39:06;;;;;;;3.93;3.40;;;26.00;99.90;;;;;;5035829;28;20457;-90
2022/07/29 10:42:00;;;;;;;4.17;3.77;;;25.80;99.90;;;;;;5016550;28;20489;-90
2022/07/29 10:44:27;;;;;;;4.00;3.53;;;25.80;99.90;;;;;;5035247;28;20470;-92
2022/07/29 10:46:55;;;;;;;3.90;3.60;;;25.80;99.90;;;;;;5033779;28;20467;-92
2022/07/29 10:49:25;;;;;;;3.80;3.20;;;25.70;99.90;;;;;;5033796;28;20461;-93
2022/07/29 10:52:05;;;;;;;3.70;3.30;;;25.50;99.90;;;;;;5036326;28;20523;-92
2022/07/29 10:54:44;;;;;;;4.33;3.93;;;25.30;99.90;;;;;;5034324;28;20464;-91
2022/07/29 10:57:21;;;;;;;5.23;3.70;;;25.10;99.90;;;;;;5032757;28;20468;-92
2022/07/29 10:59:49;;;;;;;3.87;3.47;;;24.90;99.90;;;;;;5037056;28;20488;-92
2022/07/29 11:02:47;;;;;;;4.50;4.10;;;24.60;99.90;;;;;;5036715;28;20481;-92
2022/07/29 11:05:16;;;;;;;6.07;4.50;;;24.10;99.90;;;;;;5038299;28;20469;-91
2022/07/29 11:08:17;;;;;;;6.13;3.80;;;23.70;99.90;;;;;;5035917;28;20441;-91
2022/07/29 11:10:44;;;;;;;6.20;3.70;;;23.10;99.90;;;;;;5036689;28;20459;-92
2022/07/29 11:13:11;;;;;;;4.90;3.37;;;22.70;99.90;;;;;;5035752;28;21035;-92
2022/07/29 11:15:53;;;;;;;4.60;2.97;;;22.40;99.90;;;;;;5037188;28;20468;-92
2022/07/29 11:18:22;;;;;;;3.47;3.10;;;21.90;99.90;;;;;;5037152;28;20463;-92
2022/07/29 11:20:52;;;;;;;4.37;2.93;;;21.70;99.90;;;;;;5036555;28;20493;-91
2022/07/29 11:23:23;;;;;;;3.30;3.00;;;21.40;99.90;;;;;;5036466;28;20473;-90
2022/07/29 11:26:19;;;;;;;4.53;3.10;;;21.30;99.90;;;;;;5035350;28;20548;-92
2022/07/29 11:29:07;;;;;;;5.63;3.73;;;21.00;99.90;;;;;;5034913;28;20468;-92
2022/07/29 11:31:37;;;;;;;4.00;3.50;;;20.80;99.90;;;;;;5038046;28;20479;-92
2022/07/29 11:34:24;;;;;;;3.53;3.20;;;20.70;99.90;;;;;;5058442;28;20438;-93
2022/07/29 11:37:21;;;;;;;3.93;3.53;;;20.60;99.90;;;;;;5045018;28;20456;-92
2022/07/29 11:40:07;;;;;;;4.30;3.90;;;20.50;99.90;;;;;;5040354;28;20472;-94
2022/07/29 11:42:46;;;;;;;3.80;3.30;;;20.40;99.90;;;;;;5048358;28;20480;-93
2022/07/29 11:45:15;;;;;;;4.40;3.60;;;20.20;99.90;;;;;;5046739;28;20461;-93
2022/07/29 11:47:48;;;;;;;6.60;4.20;;;20.10;99.90;;;;;;5049653;28;20792;-91
2022/07/29 11:50:19;;;;;;;4.43;3.83;;;20.20;99.90;;;;;;5051118;28;20468;-93
2022/07/29 11:52:48;;;;;;;8.50;6.07;;;20.20;99.90;;;;;;5054798;28;20500;-93
2022/07/29 11:55:18;;;;;;;4.73;3.90;;;20.10;99.90;;;;;;5055490;28;20457;-94
2022/07/29 11:57:48;;;;;;;5.37;4.17;;;20.10;99.90;;;;;;5056158;28;20456;-94
2022/07/29 12:00:49;;;;;;;4.10;3.63;;;20.20;99.90;;;;;;5055860;28;20532;-93
2022/07/29 12:03:25;;;;;;;6.53;4.57;;;20.10;99.90;;;;;;5057286;28;20464;-94
2022/07/29 12:05:53;;;;;;;5.03;4.50;;;20.10;99.90;;;;;;5055870;28;20433;-94
2022/07/29 12:08:22;;;;;;;5.50;4.00;;;20.10;99.90;;;;;;5057444;28;20513;-93
2022/07/29 12:10:51;;;;;;;5.47;4.63;;;20.10;99.90;;;;;;5055707;28;20490;-94
2022/07/29 12:13:19;;;;;;;4.70;4.13;;;20.20;99.90;;;;;;5056816;28;20437;-93
2022/07/29 12:15:53;;;;;;;4.37;3.80;;;20.20;99.90;;;;;;5056151;28;20457;-92
2022/07/29 12:18:21;;;;;;;4.27;3.87;;;20.20;99.90;;;;;;5041286;28;21014;-92
2022/07/29 12:20:48;;;;;;;5.40;3.97;;;20.20;99.90;;;;;;5036481;28;20473;-94
2022/07/29 12:23:17;;;;;;;6.10;4.57;;;20.30;99.90;;;;;;5035813;28;20468;-94
2022/07/29 12:25:45;;;;;;;4.80;4.40;;;20.30;99.90;;;;;;5036905;28;20535;-92
2022/07/29 12:28:15;;;;;;;4.73;4.03;;;20.30;99.90;;;;;;5033424;28;20496;-93
2022/07/29 12:30:45;;;;;;;4.60;4.20;;;20.30;99.90;;;;;;5042949;28;20457;-94
2022/07/29 12:33:17;;;;;;;5.13;4.50;;;20.40;99.90;;;;;;5043027;28;20489;-95
2022/07/29 12:35:46;;;;;;;4.77;4.13;;;20.40;99.90;;;;;;5042408;28;20461;-93
2022/07/29 12:38:16;;;;;;;4.90;4.40;;;20.50;99.90;;;;;;5040550;28;20450;-93
2022/07/29 12:40:54;;;;;;;4.30;3.77;;;20.50;99.90;;;;;;5040603;28;20511;-94
2022/07/29 12:43:23;;;;;;;4.53;4.13;;;20.50;99.90;;;;;;5040880;28;20445;-94
2022/07/29 12:45:53;;;;;;;4.33;3.93;;;20.60;99.90;;;;;;5042141;28;20522;-94
2022/07/29 12:48:34;;;;;;;4.97;4.47;;;20.60;99.90;;;;;;5040559;28;20470;-93
2022/07/29 12:51:02;;;;;;;4.57;4.17;;;20.60;99.90;;;;;;5039601;28;20510;-93
2022/07/29 12:53:32;;;;;;;5.13;4.63;;;20.70;99.90;;;;;;5037403;28;20556;-92
2022/07/29 12:56:01;;;;;;;4.77;4.37;;;20.70;99.90;;;;;;5039154;28;20476;-93
2022/07/29 12:58:39;;;;;;;4.73;4.33;;;20.70;99.90;;;;;;5040414;28;20507;-94
2022/07/29 13:01:19;;;;;;;4.60;4.20;;;20.70;99.90;;;;;;5037069;28;20512;-92
2022/07/29 13:03:53;;;;;;;5.10;4.70;;;20.70;99.90;;;;;;5041231;28;20465;-93
2022/07/29 13:06:38;;;;;;;9.63;4.60;;;20.70;99.90;;;;;;5028443;28;20560;-92
2022/07/29 13:09:10;;;;;;;5.37;4.97;;;20.60;99.90;;;;;;5016017;28;20489;-93